createdAt,value
2023-01-29T00:00:10.459Z,35.67
2023-01-29T00:02:38.017Z,32.50
2023-01-29T00:05:26.012Z,33.10
2023-01-29T00:07:53.919Z,30.03
2023-01-29T00:10:21.085Z,35.37
2023-01-29T00:12:48.185Z,32.50
2023-01-29T00:15:15.223Z,34.33
2023-01-29T00:17:42.209Z,30.70
2023-01-29T00:20:10.443Z,40.10
2023-01-29T00:22:37.439Z,35.40
2023-01-29T00:25:04.809Z,33.50
2023-01-29T00:27:31.769Z,35.53
2023-01-29T00:30:13.030Z,35.77
2023-01-29T00:32:43.094Z,25.83
2023-01-29T00:35:10.389Z,32.80
2023-01-29T00:37:38.139Z,31.43
2023-01-29T00:40:06.503Z,30.40
2023-01-29T00:42:51.781Z,32.13
2023-01-29T00:45:18.876Z,31.53
2023-01-29T00:47:45.858Z,33.97
2023-01-29T00:50:14.414Z,32.13
2023-01-29T00:52:41.976Z,28.70
2023-01-29T00:55:11.254Z,30.30
2023-01-29T00:57:39.911Z,34.13
2023-01-29T01:00:11.772Z,38.93
2023-01-29T01:02:57.122Z,34.13
2023-01-29T01:05:24.435Z,34.37
2023-01-29T01:07:57.814Z,34.47
2023-01-29T01:10:32.262Z,32.80
2023-01-29T01:13:07.159Z,31.00
2023-01-29T01:15:40.210Z,32.57
2023-01-29T01:18:07.445Z,31.97
2023-01-29T01:20:36.679Z,33.10
2023-01-29T01:23:04.264Z,32.90
2023-01-29T01:25:31.878Z,34.77
2023-01-29T01:30:28.375Z,33.10
2023-01-29T01:32:55.374Z,33.67
2023-01-29T01:35:22.344Z,38.27
2023-01-29T01:37:49.317Z,38.70
2023-01-29T01:40:22.947Z,45.17
2023-01-29T01:42:56.912Z,39.53
2023-01-29T01:45:36.255Z,38.20
2023-01-29T01:48:13.291Z,36.63
2023-01-29T01:50:49.304Z,40.30
2023-01-29T01:53:26.954Z,41.70
2023-01-29T01:56:02.487Z,38.50
2023-01-29T01:58:41.464Z,40.73
2023-01-29T02:01:10.040Z,42.53
2023-01-29T02:04:21.324Z,42.17
2023-01-29T02:07:07.684Z,36.90
2023-01-29T02:09:53.313Z,43.07
2023-01-29T02:12:22.014Z,39.80
2023-01-29T02:14:49.194Z,42.17
2023-01-29T02:17:19.458Z,40.77
2023-01-29T02:20:34.494Z,44.03
2023-01-29T02:23:23.546Z,43.10
2023-01-29T02:26:14.603Z,43.90
2023-01-29T02:29:27.393Z,38.60
2023-01-29T02:32:30.196Z,41.83
2023-01-29T02:35:34.809Z,42.50
2023-01-29T02:38:27.226Z,40.30
2023-01-29T02:41:05.789Z,45.17
2023-01-29T02:44:08.258Z,43.20
2023-01-29T02:46:46.860Z,41.30
2023-01-29T02:49:34.184Z,41.87
2023-01-29T02:52:15.543Z,41.40
2023-01-29T02:54:52.105Z,37.00
2023-01-29T02:57:29.351Z,44.40
2023-01-29T03:00:04.622Z,36.40
2023-01-29T03:02:44.567Z,42.07
2023-01-29T03:05:27.250Z,44.20
2023-01-29T03:08:03.436Z,45.10
2023-01-29T03:10:40.990Z,45.83
2023-01-29T03:13:20.463Z,40.50
2023-01-29T03:16:01.752Z,41.73
2023-01-29T03:18:36.951Z,41.97
2023-01-29T03:21:34.918Z,43.40
2023-01-29T03:24:23.497Z,38.90
2023-01-29T03:27:08.778Z,36.67
2023-01-29T03:29:57.154Z,49.17
2023-01-29T03:32:26.744Z,40.30
2023-01-29T03:35:00.918Z,44.67
2023-01-29T03:37:49.154Z,39.17
2023-01-29T03:40:17.236Z,43.23
2023-01-29T03:43:11.863Z,41.33
2023-01-29T03:46:29.338Z,49.93
2023-01-29T03:49:23.469Z,43.00
2023-01-29T03:52:09.815Z,35.17
2023-01-29T03:55:01.660Z,37.10
2023-01-29T03:57:35.674Z,32.10
2023-01-29T04:00:23.830Z,35.67
2023-01-29T04:03:20.222Z,34.80
2023-01-29T04:06:10.002Z,33.63
2023-01-29T04:08:59.115Z,31.70
2023-01-29T04:11:30.273Z,26.97
2023-01-29T04:13:58.641Z,22.10
2023-01-29T04:16:34.060Z,23.57
2023-01-29T04:19:01.388Z,23.67
2023-01-29T04:21:32.019Z,27.67
2023-01-29T04:23:59.077Z,21.50
2023-01-29T04:27:16.143Z,29.83
2023-01-29T04:30:00.813Z,22.30
2023-01-29T04:32:39.659Z,26.87
2023-01-29T04:35:07.318Z,22.10
2023-01-29T04:38:06.403Z,21.27
2023-01-29T04:41:04.644Z,22.23
2023-01-29T04:44:05.464Z,19.90
2023-01-29T04:47:15.815Z,18.67
2023-01-29T04:50:00.670Z,19.33
2023-01-29T04:52:48.339Z,20.00
2023-01-29T04:55:28.978Z,19.00
2023-01-29T04:58:16.647Z,19.30
2023-01-29T05:00:47.613Z,19.40
2023-01-29T05:03:16.570Z,20.70
2023-01-29T05:05:48.576Z,20.97
2023-01-29T05:08:21.255Z,18.60
2023-01-29T05:10:53.307Z,19.33
2023-01-29T05:13:22.899Z,21.10
2023-01-29T05:15:56.324Z,23.93
2023-01-29T05:18:23.636Z,21.03
2023-01-29T05:20:50.893Z,19.63
2023-01-29T05:23:21.009Z,19.53
2023-01-29T05:25:50.702Z,20.57
2023-01-29T05:28:19.262Z,19.73
2023-01-29T05:30:52.697Z,20.17
2023-01-29T05:33:23.384Z,18.03
2023-01-29T05:35:52.574Z,20.30
2023-01-29T05:38:21.232Z,19.30
2023-01-29T05:40:48.300Z,16.47
2023-01-29T05:43:22.264Z,21.57
2023-01-29T05:46:00.796Z,23.17
2023-01-29T05:48:29.552Z,18.90
2023-01-29T05:51:05.408Z,18.97
2023-01-29T05:53:33.616Z,19.00
2023-01-29T05:56:05.672Z,20.67
2023-01-29T05:58:33.472Z,21.40
2023-01-29T06:01:19.237Z,24.60
2023-01-29T06:03:47.057Z,26.13
2023-01-29T06:06:14.519Z,20.23
2023-01-29T06:08:41.915Z,23.23
2023-01-29T06:11:12.421Z,21.57
2023-01-29T06:13:39.829Z,21.97
2023-01-29T06:16:12.077Z,19.17
2023-01-29T06:18:40.527Z,19.65
2023-01-29T06:21:11.200Z,19.60
2023-01-29T06:23:38.418Z,16.57
2023-01-29T06:26:11.164Z,21.30
2023-01-29T06:28:39.086Z,22.00
2023-01-29T06:31:37.315Z,23.93
2023-01-29T06:33:55.161Z,22.67
2023-01-29T06:36:22.174Z,20.90
2023-01-29T06:38:49.228Z,24.00
2023-01-29T06:41:19.878Z,21.83
2023-01-29T06:43:48.260Z,25.23
2023-01-29T06:46:15.240Z,22.17
2023-01-29T06:48:42.413Z,23.70
2023-01-29T06:51:11.299Z,18.43
2023-01-29T06:53:40.058Z,22.77
2023-01-29T06:56:08.454Z,23.07
2023-01-29T06:58:39.574Z,25.67
2023-01-29T07:01:10.580Z,19.27
2023-01-29T07:03:38.267Z,21.37
2023-01-29T07:06:06.419Z,20.13
2023-01-29T07:08:40.239Z,20.07
2023-01-29T07:11:08.239Z,19.53
2023-01-29T07:13:35.219Z,23.40
2023-01-29T07:16:05.092Z,23.47
2023-01-29T07:18:33.459Z,25.63
2023-01-29T07:21:07.659Z,20.60
2023-01-29T07:23:35.585Z,21.37
2023-01-29T07:26:07.085Z,19.80
2023-01-29T07:28:38.706Z,17.43
2023-01-29T07:31:07.867Z,20.53
2023-01-29T07:33:35.561Z,21.90
2023-01-29T07:36:02.753Z,21.03
2023-01-29T07:38:29.705Z,18.20
2023-01-29T07:40:56.674Z,16.63
2023-01-29T07:43:25.183Z,15.57
2023-01-29T07:45:52.655Z,16.23
2023-01-29T07:48:20.026Z,18.53
2023-01-29T07:50:56.267Z,17.93
2023-01-29T07:53:23.763Z,15.40
2023-01-29T07:55:51.761Z,18.53
2023-01-29T07:58:18.922Z,19.73
2023-01-29T08:00:46.355Z,25.17
2023-01-29T08:03:17.936Z,18.80
2023-01-29T08:05:45.824Z,20.93
2023-01-29T08:08:13.422Z,21.87
2023-01-29T08:10:41.644Z,20.67
2023-01-29T08:13:09.584Z,17.73
2023-01-29T08:18:24.403Z,16.60
2023-01-29T08:20:52.909Z,17.47
2023-01-29T08:23:20.053Z,16.57
2023-01-29T08:25:47.144Z,16.83
2023-01-29T08:28:14.162Z,16.27
2023-01-29T08:30:41.561Z,15.33
2023-01-29T08:33:08.590Z,16.17
2023-01-29T08:35:35.742Z,14.10
2023-01-29T08:38:05.378Z,17.23
2023-01-29T08:40:34.642Z,17.53
2023-01-29T08:43:09.223Z,13.20
2023-01-29T08:45:43.709Z,15.07
2023-01-29T08:48:11.331Z,13.93
2023-01-29T08:50:39.052Z,15.00
2023-01-29T08:53:09.269Z,13.63
2023-01-29T08:55:41.127Z,11.70
2023-01-29T08:58:11.636Z,14.07
2023-01-29T09:00:39.048Z,11.90
2023-01-29T09:03:08.107Z,11.57
2023-01-29T09:05:38.419Z,11.40
2023-01-29T09:08:07.444Z,9.90
2023-01-29T09:10:35.408Z,10.10
2023-01-29T09:13:02.564Z,14.90
2023-01-29T09:15:29.763Z,8.50
2023-01-29T09:17:56.803Z,10.47
2023-01-29T09:20:23.759Z,10.20
2023-01-29T09:22:53.839Z,9.13
2023-01-29T09:25:20.828Z,8.23
2023-01-29T09:27:48.144Z,9.30
2023-01-29T09:30:15.780Z,8.60
2023-01-29T09:32:53.037Z,10.30
2023-01-29T09:35:22.163Z,8.57
2023-01-29T09:37:50.664Z,10.00
2023-01-29T09:40:45.273Z,9.00
2023-01-29T09:43:22.996Z,10.80
2023-01-29T09:46:06.661Z,9.20
2023-01-29T09:48:36.778Z,10.20
2023-01-29T09:51:15.468Z,10.13
2023-01-29T09:54:05.063Z,9.50
2023-01-29T09:56:32.678Z,8.90
2023-01-29T09:59:01.704Z,8.03
2023-01-29T10:02:03.295Z,7.10
2023-01-29T10:04:49.606Z,9.10
2023-01-29T10:07:56.666Z,7.63
2023-01-29T10:10:50.884Z,10.53
2023-01-29T10:13:33.085Z,7.33
2023-01-29T10:16:33.415Z,7.53
2023-01-29T10:19:41.824Z,7.47
2023-01-29T10:22:45.281Z,8.27
2023-01-29T10:25:16.925Z,7.83
2023-01-29T10:27:51.613Z,11.13
2023-01-29T10:30:40.438Z,7.03
2023-01-29T10:33:49.227Z,7.87
2023-01-29T10:36:32.914Z,8.53
2023-01-29T10:38:59.815Z,7.70
2023-01-29T10:41:41.920Z,10.73
2023-01-29T10:44:20.219Z,11.30
2023-01-29T10:46:59.052Z,8.10
2023-01-29T10:49:58.991Z,7.50
2023-01-29T10:52:50.269Z,9.80
2023-01-29T10:55:38.193Z,6.57
2023-01-29T10:58:29.461Z,7.07
2023-01-29T11:00:56.741Z,9.17
2023-01-29T11:03:29.533Z,8.40
2023-01-29T11:06:10.262Z,7.43
2023-01-29T11:08:49.792Z,8.13
2023-01-29T11:11:22.332Z,8.70
2023-01-29T11:13:59.268Z,8.63
2023-01-29T11:16:30.261Z,9.20
2023-01-29T11:19:02.639Z,10.07
2023-01-29T11:21:30.163Z,10.07
2023-01-29T11:24:18.975Z,7.87
2023-01-29T11:26:50.351Z,9.27
2023-01-29T11:29:46.994Z,7.70
2023-01-29T11:32:22.838Z,9.20
2023-01-29T11:35:06.650Z,8.23
2023-01-29T11:37:38.228Z,7.50
2023-01-29T11:40:20.846Z,9.47
2023-01-29T11:42:48.891Z,10.20
2023-01-29T11:45:32.532Z,10.73
2023-01-29T11:48:00.202Z,11.10
2023-01-29T11:50:30.674Z,8.90
2023-01-29T11:53:00.185Z,9.57
2023-01-29T11:55:41.103Z,7.03
2023-01-29T11:58:29.166Z,8.60
2023-01-29T12:00:58.638Z,7.77
2023-01-29T12:03:31.325Z,8.63
2023-01-29T12:06:06.679Z,7.70
2023-01-29T12:08:39.854Z,10.60
2023-01-29T12:11:42.145Z,8.93
2023-01-29T12:14:26.720Z,8.90
2023-01-29T12:17:08.718Z,10.47
2023-01-29T12:19:51.436Z,11.10
2023-01-29T12:22:22.019Z,10.47
2023-01-29T12:25:06.821Z,10.27
2023-01-29T12:27:42.344Z,9.50
2023-01-29T12:30:28.610Z,11.57
2023-01-29T12:33:15.493Z,11.00
2023-01-29T12:35:48.551Z,8.97
2023-01-29T12:38:21.130Z,10.30
2023-01-29T12:41:22.248Z,9.97
2023-01-29T12:43:58.913Z,11.03
2023-01-29T12:46:30.609Z,10.23
2023-01-29T12:49:04.127Z,10.73
2023-01-29T12:51:41.121Z,9.73
2023-01-29T12:54:15.352Z,10.60
2023-01-29T12:56:54.257Z,13.03
2023-01-29T12:59:46.201Z,16.53
2023-01-29T13:02:30.393Z,14.40
2023-01-29T13:05:16.798Z,13.03
2023-01-29T13:07:54.994Z,10.50
2023-01-29T13:10:30.952Z,7.27
2023-01-29T13:13:05.900Z,12.27
2023-01-29T13:15:40.371Z,11.10
2023-01-29T13:18:38.069Z,10.63
2023-01-29T13:21:06.260Z,9.40
2023-01-29T13:23:52.180Z,14.10
2023-01-29T13:26:21.188Z,13.30
2023-01-29T13:28:50.164Z,13.07
2023-01-29T13:31:35.178Z,9.90
2023-01-29T13:34:24.696Z,10.57
2023-01-29T13:36:57.571Z,10.00
2023-01-29T13:39:38.254Z,12.87
2023-01-29T13:42:21.305Z,12.53
2023-01-29T13:44:58.344Z,12.13
2023-01-29T13:47:34.915Z,12.20
2023-01-29T13:50:07.903Z,11.30
2023-01-29T13:52:54.250Z,12.13
2023-01-29T13:55:34.275Z,11.20
2023-01-29T13:58:07.065Z,11.00
2023-01-29T14:00:33.929Z,13.20
2023-01-29T14:03:00.879Z,9.57
2023-01-29T14:05:31.008Z,13.97
2023-01-29T14:08:06.334Z,9.37
2023-01-29T14:10:36.716Z,11.50
2023-01-29T14:13:03.616Z,12.47
2023-01-29T14:15:34.094Z,10.50
2023-01-29T14:18:16.582Z,10.00
2023-01-29T14:21:00.988Z,11.47
2023-01-29T14:24:17.557Z,11.90
2023-01-29T14:26:48.578Z,16.03
2023-01-29T14:29:34.670Z,12.90
2023-01-29T14:32:08.262Z,11.07
2023-01-29T14:35:03.931Z,9.57
2023-01-29T14:37:39.057Z,11.77
2023-01-29T14:40:12.164Z,13.13
2023-01-29T14:42:56.761Z,13.87
2023-01-29T14:45:25.390Z,12.40
2023-01-29T14:48:09.806Z,11.63
2023-01-29T14:50:36.704Z,13.83
2023-01-29T14:53:55.740Z,11.87
2023-01-29T14:56:49.023Z,13.20
2023-01-29T14:59:55.744Z,9.27
2023-01-29T15:02:34.208Z,13.10
2023-01-29T15:05:04.794Z,12.80
2023-01-29T15:07:42.481Z,12.30
2023-01-29T15:10:43.627Z,12.50
2023-01-29T15:13:34.618Z,15.60
2023-01-29T15:16:11.158Z,12.03
2023-01-29T15:18:43.676Z,14.07
2023-01-29T15:21:19.599Z,12.27
2023-01-29T15:23:49.155Z,16.17
2023-01-29T15:26:26.648Z,11.80
2023-01-29T15:29:04.825Z,12.77
2023-01-29T15:31:32.675Z,13.53
2023-01-29T15:34:06.906Z,13.20
2023-01-29T15:36:34.359Z,12.20
2023-01-29T15:39:22.755Z,15.70
2023-01-29T15:41:52.436Z,16.10
2023-01-29T15:44:23.321Z,11.53
2023-01-29T15:46:57.334Z,14.57
2023-01-29T15:49:55.420Z,11.47
2023-01-29T15:52:33.299Z,13.13
2023-01-29T15:55:08.394Z,12.37
2023-01-29T15:57:41.216Z,13.47
2023-01-29T16:00:22.169Z,13.60
2023-01-29T16:02:49.124Z,13.77
2023-01-29T16:05:35.209Z,14.03
2023-01-29T16:08:03.201Z,13.27
2023-01-29T16:10:32.697Z,16.13
2023-01-29T16:13:00.347Z,18.33
2023-01-29T16:15:36.921Z,12.90
2023-01-29T16:18:45.060Z,16.00
2023-01-29T16:21:36.531Z,15.87
2023-01-29T16:24:10.100Z,12.83
2023-01-29T16:26:42.896Z,13.13
2023-01-29T16:29:18.888Z,12.77
2023-01-29T16:31:51.808Z,17.13
2023-01-29T16:34:27.727Z,16.13
2023-01-29T16:36:55.863Z,19.67
2023-01-29T16:39:28.216Z,19.83
2023-01-29T16:42:11.144Z,17.87
2023-01-29T16:45:04.618Z,13.43
2023-01-29T16:47:41.699Z,14.37
2023-01-29T16:50:46.417Z,16.00
2023-01-29T16:53:24.673Z,16.13
2023-01-29T16:55:52.999Z,17.93
2023-01-29T16:58:30.570Z,16.50
2023-01-29T17:01:09.981Z,16.07
2023-01-29T17:03:40.319Z,15.13
2023-01-29T17:06:20.523Z,15.77
2023-01-29T17:08:48.363Z,22.20
2023-01-29T17:11:27.285Z,17.57
2023-01-29T17:13:57.271Z,18.57
2023-01-29T17:16:34.747Z,16.00
2023-01-29T17:19:02.995Z,18.73
2023-01-29T17:21:30.768Z,19.67
2023-01-29T17:23:58.463Z,19.10
2023-01-29T17:26:25.628Z,20.50
2023-01-29T17:28:55.240Z,23.17
2023-01-29T17:31:22.798Z,22.37
2023-01-29T17:33:49.875Z,22.87
2023-01-29T17:36:18.386Z,19.93
2023-01-29T17:38:46.067Z,18.43
2023-01-29T17:41:27.393Z,21.47
2023-01-29T17:43:54.579Z,20.97
2023-01-29T17:46:22.945Z,20.33
2023-01-29T17:48:50.457Z,23.23
2023-01-29T17:51:18.647Z,18.67
2023-01-29T17:53:47.094Z,20.60
2023-01-29T17:56:23.875Z,20.27
2023-01-29T17:58:50.898Z,23.00
2023-01-29T18:01:17.920Z,20.23
2023-01-29T18:03:44.992Z,22.60
2023-01-29T18:06:29.338Z,25.50
2023-01-29T18:08:57.118Z,31.17
2023-01-29T18:11:24.617Z,31.80
2023-01-29T18:13:51.711Z,29.90
2023-01-29T18:16:18.740Z,34.40
2023-01-29T18:18:45.766Z,38.00
2023-01-29T18:21:12.637Z,35.40
2023-01-29T18:23:39.809Z,35.00
2023-01-29T18:26:07.792Z,27.73
2023-01-29T18:28:34.740Z,34.40
2023-01-29T18:31:04.166Z,34.00
2023-01-29T18:33:31.765Z,33.37
2023-01-29T18:35:58.755Z,33.67
2023-01-29T18:38:25.594Z,31.43
2023-01-29T18:40:52.584Z,30.00
2023-01-29T18:43:19.462Z,32.33
2023-01-29T18:45:46.602Z,27.53
2023-01-29T18:48:14.399Z,28.70
2023-01-29T18:50:41.303Z,28.80
2023-01-29T18:53:08.298Z,26.77
2023-01-29T18:55:35.289Z,23.97
2023-01-29T18:58:34.231Z,21.90
2023-01-29T19:00:49.717Z,27.87
2023-01-29T19:03:17.363Z,28.07
2023-01-29T19:05:45.060Z,29.50
2023-01-29T19:08:12.180Z,23.10
2023-01-29T19:10:40.671Z,26.20
2023-01-29T19:13:08.790Z,26.73
2023-01-29T19:15:36.028Z,26.20
2023-01-29T19:18:04.320Z,26.40
2023-01-29T19:20:31.372Z,24.87
2023-01-29T19:22:58.326Z,24.90
2023-01-29T19:25:25.678Z,25.60
2023-01-29T19:27:52.722Z,28.57
2023-01-29T19:30:19.864Z,23.87
2023-01-29T19:32:46.914Z,28.37
2023-01-29T19:35:13.901Z,28.77
2023-01-29T19:37:40.911Z,28.83
2023-01-29T19:40:08.859Z,22.07
2023-01-29T19:42:37.595Z,28.33
2023-01-29T19:45:07.042Z,27.23
2023-01-29T19:47:40.729Z,28.17
2023-01-29T19:50:11.583Z,25.50
2023-01-29T19:52:50.612Z,27.60
2023-01-29T19:55:20.915Z,28.07
2023-01-29T19:57:48.515Z,26.80
2023-01-29T20:00:17.657Z,26.77
2023-01-29T20:02:44.865Z,23.10
2023-01-29T20:05:13.189Z,23.70
2023-01-29T20:07:42.536Z,23.27
2023-01-29T20:10:17.416Z,24.43
2023-01-29T20:12:46.471Z,23.67
2023-01-29T20:15:15.019Z,23.13
2023-01-29T20:17:43.230Z,26.47
2023-01-29T20:20:11.345Z,26.13
2023-01-29T20:22:38.351Z,26.20
2023-01-29T20:25:06.215Z,24.20
2023-01-29T20:27:33.234Z,25.73
2023-01-29T20:30:00.281Z,24.17
2023-01-29T20:32:27.173Z,26.00
2023-01-29T20:34:54.086Z,25.43
2023-01-29T20:37:21.044Z,25.83
2023-01-29T20:39:47.980Z,31.50
2023-01-29T20:42:15.083Z,29.07
2023-01-29T20:44:42.215Z,25.77
2023-01-29T20:47:09.495Z,27.07
2023-01-29T20:49:36.615Z,26.63
2023-01-29T20:52:03.751Z,29.43
2023-01-29T20:54:33.340Z,24.77
2023-01-29T20:57:00.621Z,22.53
2023-01-29T20:59:29.271Z,25.60
2023-01-29T21:01:56.904Z,27.37
2023-01-29T21:04:24.003Z,24.77
2023-01-29T21:06:50.946Z,29.60
2023-01-29T21:09:17.959Z,29.10
2023-01-29T21:11:45.387Z,25.70
2023-01-29T21:14:12.672Z,27.77
2023-01-29T21:16:39.844Z,33.13
2023-01-29T21:19:07.436Z,35.70
2023-01-29T21:21:35.371Z,17.30
2023-01-29T21:24:02.338Z,30.57
2023-01-29T21:26:29.789Z,27.57
2023-01-29T21:28:57.062Z,30.90
2023-01-29T21:31:24.020Z,26.10
2023-01-29T21:33:51.148Z,29.53
2023-01-29T21:36:18.206Z,27.10
2023-01-29T21:38:45.203Z,35.03
2023-01-29T21:41:12.181Z,32.73
2023-01-29T21:43:39.193Z,31.13
2023-01-29T21:46:15.801Z,33.80
2023-01-29T21:48:43.301Z,28.27
2023-01-29T21:51:10.448Z,32.00
2023-01-29T21:53:37.385Z,26.40
2023-01-29T21:56:06.358Z,28.80
2023-01-29T21:58:33.387Z,18.87
2023-01-29T22:01:18.086Z,26.10
2023-01-29T22:03:47.765Z,30.00
2023-01-29T22:06:15.759Z,30.97
2023-01-29T22:08:43.240Z,35.23
2023-01-29T22:11:12.715Z,31.17
2023-01-29T22:13:39.697Z,29.53
2023-01-29T22:16:07.388Z,30.83
2023-01-29T22:18:35.571Z,34.57
2023-01-29T22:21:05.681Z,32.20
2023-01-29T22:23:32.958Z,31.80
2023-01-29T22:26:09.079Z,17.17
2023-01-29T22:28:37.131Z,27.73
2023-01-29T22:31:05.480Z,29.57
2023-01-29T22:33:33.695Z,27.40
2023-01-29T22:36:01.295Z,30.03
2023-01-29T22:38:28.823Z,31.17
2023-01-29T22:40:57.696Z,27.30
2023-01-29T22:43:26.743Z,26.17
2023-01-29T22:45:54.384Z,34.90
2023-01-29T22:48:24.135Z,24.93
2023-01-29T22:51:29.069Z,29.97
2023-01-29T22:53:57.543Z,19.43
2023-01-29T22:56:27.509Z,28.43
2023-01-29T22:58:58.571Z,22.80
2023-01-29T23:01:28.936Z,24.93
2023-01-29T23:03:57.307Z,22.47
2023-01-29T23:06:24.978Z,23.00
2023-01-29T23:08:53.237Z,17.70
2023-01-29T23:11:23.941Z,18.83
2023-01-29T23:13:55.321Z,22.30
2023-01-29T23:16:28.047Z,25.33
2023-01-29T23:18:56.724Z,21.80
2023-01-29T23:21:25.599Z,25.00
2023-01-29T23:23:54.587Z,21.33
2023-01-29T23:26:39.765Z,25.63
2023-01-29T23:29:06.645Z,22.57
2023-01-29T23:31:34.309Z,23.43
2023-01-29T23:34:01.437Z,21.37
2023-01-29T23:36:28.848Z,22.07
2023-01-29T23:38:56.260Z,23.00
2023-01-29T23:41:23.580Z,20.43
2023-01-29T23:43:50.535Z,26.00
2023-01-29T23:46:17.600Z,22.23
2023-01-29T23:48:44.502Z,22.77
2023-01-29T23:51:11.442Z,20.80
2023-01-29T23:53:38.962Z,24.47
2023-01-29T23:56:06.937Z,19.67
2023-01-29T23:58:34.513Z,26.00
